sensor_id;sensor_type;location;lat;lon;timestamp;P1;durP1;ratioP1;P2;durP2;ratioP2
3417;SDS011;68007;51.312;12.372;2023-05-07T00:00:29;9.07;;;6.67;;
3417;SDS011;68007;51.312;12.372;2023-05-07T00:02:57;7.63;;;6.50;;
3417;SDS011;68007;51.312;12.372;2023-05-07T00:05:24;8.43;;;6.40;;
3417;SDS011;68007;51.312;12.372;2023-05-07T00:07:53;7.83;;;6.47;;
3417;SDS011;68007;51.312;12.372;2023-05-07T00:10:21;11.33;;;6.90;;
3417;SDS011;68007;51.312;12.372;2023-05-07T00:12:48;9.53;;;7.13;;
3417;SDS011;68007;51.312;12.372;2023-05-07T00:15:16;8.97;;;8.07;;
3417;SDS011;68007;51.312;12.372;2023-05-07T00:17:43;11.33;;;6.87;;
3417;SDS011;68007;51.312;12.372;2023-05-07T00:20:11;7.57;;;6.67;;
3417;SDS011;68007;51.312;12.372;2023-05-07T00:22:39;8.40;;;6.93;;
3417;SDS011;68007;51.312;12.372;2023-05-07T00:25:08;10.60;;;7.00;;
3417;SDS011;68007;51.312;12.372;2023-05-07T00:27:36;13.10;;;6.40;;
3417;SDS011;68007;51.312;12.372;2023-05-07T00:30:04;9.20;;;6.30;;
3417;SDS011;68007;51.312;12.372;2023-05-07T00:32:32;6.40;;;5.67;;
3417;SDS011;68007;51.312;12.372;2023-05-07T00:35:00;7.27;;;5.63;;
3417;SDS011;68007;51.312;12.372;2023-05-07T00:37:27;9.00;;;5.90;;
3417;SDS011;68007;51.312;12.372;2023-05-07T00:39:55;8.20;;;6.10;;
3417;SDS011;68007;51.312;12.372;2023-05-07T00:42:24;8.23;;;6.20;;
3417;SDS011;68007;51.312;12.372;2023-05-07T00:44:52;7.17;;;6.23;;
3417;SDS011;68007;51.312;12.372;2023-05-07T00:47:19;9.20;;;7.17;;
3417;SDS011;68007;51.312;12.372;2023-05-07T00:49:47;6.60;;;5.47;;
3417;SDS011;68007;51.312;12.372;2023-05-07T00:52:16;7.90;;;6.00;;
3417;SDS011;68007;51.312;12.372;2023-05-07T00:54:44;8.47;;;6.77;;
3417;SDS011;68007;51.312;12.372;2023-05-07T00:57:12;7.63;;;5.97;;
3417;SDS011;68007;51.312;12.372;2023-05-07T00:59:41;6.93;;;5.87;;
3417;SDS011;68007;51.312;12.372;2023-05-07T01:02:08;6.10;;;5.40;;
3417;SDS011;68007;51.312;12.372;2023-05-07T01:04:36;7.90;;;6.30;;
3417;SDS011;68007;51.312;12.372;2023-05-07T01:07:04;7.17;;;6.20;;
3417;SDS011;68007;51.312;12.372;2023-05-07T01:09:32;6.60;;;5.90;;
3417;SDS011;68007;51.312;12.372;2023-05-07T01:12:00;7.27;;;6.03;;
3417;SDS011;68007;51.312;12.372;2023-05-07T01:14:28;8.37;;;6.50;;
3417;SDS011;68007;51.312;12.372;2023-05-07T01:16:58;8.00;;;6.60;;
3417;SDS011;68007;51.312;12.372;2023-05-07T01:19:25;7.63;;;6.83;;
3417;SDS011;68007;51.312;12.372;2023-05-07T01:21:53;7.90;;;6.93;;
3417;SDS011;68007;51.312;12.372;2023-05-07T01:24:29;11.13;;;7.27;;
3417;SDS011;68007;51.312;12.372;2023-05-07T01:26:58;9.60;;;8.03;;
3417;SDS011;68007;51.312;12.372;2023-05-07T01:29:27;9.27;;;7.63;;
3417;SDS011;68007;51.312;12.372;2023-05-07T01:31:55;10.20;;;8.30;;
3417;SDS011;68007;51.312;12.372;2023-05-07T01:34:25;9.80;;;7.77;;
3417;SDS011;68007;51.312;12.372;2023-05-07T01:36:56;10.33;;;7.67;;
3417;SDS011;68007;51.312;12.372;2023-05-07T01:39:26;10.93;;;7.70;;
3417;SDS011;68007;51.312;12.372;2023-05-07T01:41:56;8.43;;;7.30;;
3417;SDS011;68007;51.312;12.372;2023-05-07T01:44:25;13.13;;;8.40;;
3417;SDS011;68007;51.312;12.372;2023-05-07T01:46:53;10.57;;;8.87;;
3417;SDS011;68007;51.312;12.372;2023-05-07T01:49:21;10.10;;;8.17;;
3417;SDS011;68007;51.312;12.372;2023-05-07T01:51:49;10.10;;;7.87;;
3417;SDS011;68007;51.312;12.372;2023-05-07T01:54:17;12.20;;;8.97;;
3417;SDS011;68007;51.312;12.372;2023-05-07T01:56:44;13.70;;;9.10;;
3417;SDS011;68007;51.312;12.372;2023-05-07T01:59:15;14.10;;;9.40;;
3417;SDS011;68007;51.312;12.372;2023-05-07T02:01:42;12.90;;;9.60;;
3417;SDS011;68007;51.312;12.372;2023-05-07T02:04:10;13.70;;;10.17;;
3417;SDS011;68007;51.312;12.372;2023-05-07T02:06:37;15.10;;;9.70;;
3417;SDS011;68007;51.312;12.372;2023-05-07T02:09:05;12.40;;;8.47;;
3417;SDS011;68007;51.312;12.372;2023-05-07T02:11:34;12.20;;;8.80;;
3417;SDS011;68007;51.312;12.372;2023-05-07T02:14:02;12.73;;;9.73;;
3417;SDS011;68007;51.312;12.372;2023-05-07T02:16:31;13.47;;;10.30;;
3417;SDS011;68007;51.312;12.372;2023-05-07T02:18:58;14.83;;;11.10;;
3417;SDS011;68007;51.312;12.372;2023-05-07T02:21:26;14.33;;;10.00;;
3417;SDS011;68007;51.312;12.372;2023-05-07T02:23:54;12.40;;;9.87;;
3417;SDS011;68007;51.312;12.372;2023-05-07T02:26:21;14.93;;;10.80;;
3417;SDS011;68007;51.312;12.372;2023-05-07T02:28:49;14.30;;;10.50;;
3417;SDS011;68007;51.312;12.372;2023-05-07T02:31:16;13.87;;;10.40;;
3417;SDS011;68007;51.312;12.372;2023-05-07T02:33:45;13.40;;;10.80;;
3417;SDS011;68007;51.312;12.372;2023-05-07T02:36:12;12.77;;;10.63;;
3417;SDS011;68007;51.312;12.372;2023-05-07T02:38:40;13.60;;;10.20;;
3417;SDS011;68007;51.312;12.372;2023-05-07T02:41:09;13.20;;;10.40;;
3417;SDS011;68007;51.312;12.372;2023-05-07T02:43:36;13.73;;;11.00;;
3417;SDS011;68007;51.312;12.372;2023-05-07T02:46:04;14.77;;;9.80;;
3417;SDS011;68007;51.312;12.372;2023-05-07T02:48:33;13.47;;;11.10;;
3417;SDS011;68007;51.312;12.372;2023-05-07T02:51:02;14.40;;;10.13;;
3417;SDS011;68007;51.312;12.372;2023-05-07T02:53:31;13.47;;;10.10;;
3417;SDS011;68007;51.312;12.372;2023-05-07T02:55:59;13.70;;;10.03;;
3417;SDS011;68007;51.312;12.372;2023-05-07T02:58:28;13.10;;;10.20;;
3417;SDS011;68007;51.312;12.372;2023-05-07T03:00:55;12.73;;;10.53;;
3417;SDS011;68007;51.312;12.372;2023-05-07T03:03:23;12.70;;;10.73;;
3417;SDS011;68007;51.312;12.372;2023-05-07T03:05:50;11.80;;;10.40;;
3417;SDS011;68007;51.312;12.372;2023-05-07T03:08:19;12.57;;;10.37;;
3417;SDS011;68007;51.312;12.372;2023-05-07T03:10:46;12.30;;;9.60;;
3417;SDS011;68007;51.312;12.372;2023-05-07T03:13:14;14.23;;;10.17;;
3417;SDS011;68007;51.312;12.372;2023-05-07T03:15:42;13.87;;;10.50;;
3417;SDS011;68007;51.312;12.372;2023-05-07T03:18:09;13.07;;;10.60;;
3417;SDS011;68007;51.312;12.372;2023-05-07T03:20:37;12.40;;;9.93;;
3417;SDS011;68007;51.312;12.372;2023-05-07T03:23:04;23.43;;;10.37;;
3417;SDS011;68007;51.312;12.372;2023-05-07T03:25:33;11.40;;;9.87;;
3417;SDS011;68007;51.312;12.372;2023-05-07T03:28:01;13.80;;;10.23;;
3417;SDS011;68007;51.312;12.372;2023-05-07T03:30:29;12.93;;;10.10;;
3417;SDS011;68007;51.312;12.372;2023-05-07T03:32:56;13.40;;;10.20;;
3417;SDS011;68007;51.312;12.372;2023-05-07T03:35:24;11.90;;;9.40;;
3417;SDS011;68007;51.312;12.372;2023-05-07T03:37:51;11.67;;;9.13;;
3417;SDS011;68007;51.312;12.372;2023-05-07T03:40:18;11.77;;;9.70;;
3417;SDS011;68007;51.312;12.372;2023-05-07T03:42:47;11.27;;;9.33;;
3417;SDS011;68007;51.312;12.372;2023-05-07T03:45:15;13.63;;;10.00;;
3417;SDS011;68007;51.312;12.372;2023-05-07T03:47:42;11.30;;;9.10;;
3417;SDS011;68007;51.312;12.372;2023-05-07T03:50:10;10.40;;;8.70;;
3417;SDS011;68007;51.312;12.372;2023-05-07T03:52:37;12.30;;;9.70;;
3417;SDS011;68007;51.312;12.372;2023-05-07T03:55:05;12.63;;;9.60;;
3417;SDS011;68007;51.312;12.372;2023-05-07T03:57:33;11.70;;;9.23;;
3417;SDS011;68007;51.312;12.372;2023-05-07T04:00:02;13.30;;;9.70;;
3417;SDS011;68007;51.312;12.372;2023-05-07T04:02:32;11.90;;;9.20;;
3417;SDS011;68007;51.312;12.372;2023-05-07T04:05:00;11.13;;;9.70;;
3417;SDS011;68007;51.312;12.372;2023-05-07T04:07:27;13.50;;;10.30;;
3417;SDS011;68007;51.312;12.372;2023-05-07T04:09:55;12.17;;;10.07;;
3417;SDS011;68007;51.312;12.372;2023-05-07T04:12:22;13.20;;;10.47;;
3417;SDS011;68007;51.312;12.372;2023-05-07T04:14:50;10.93;;;9.17;;
3417;SDS011;68007;51.312;12.372;2023-05-07T04:17:19;11.87;;;10.03;;
3417;SDS011;68007;51.312;12.372;2023-05-07T04:19:46;11.73;;;10.00;;
3417;SDS011;68007;51.312;12.372;2023-05-07T04:22:14;12.30;;;10.10;;
3417;SDS011;68007;51.312;12.372;2023-05-07T04:24:41;15.37;;;10.47;;
3417;SDS011;68007;51.312;12.372;2023-05-07T04:27:09;17.93;;;10.00;;
3417;SDS011;68007;51.312;12.372;2023-05-07T04:29:36;13.83;;;10.30;;
3417;SDS011;68007;51.312;12.372;2023-05-07T04:32:08;13.00;;;10.00;;
3417;SDS011;68007;51.312;12.372;2023-05-07T04:34:37;12.97;;;9.60;;
3417;SDS011;68007;51.312;12.372;2023-05-07T04:37:04;11.80;;;9.53;;
3417;SDS011;68007;51.312;12.372;2023-05-07T04:39:32;12.87;;;9.70;;
3417;SDS011;68007;51.312;12.372;2023-05-07T04:42:01;14.73;;;10.03;;
3417;SDS011;68007;51.312;12.372;2023-05-07T04:44:28;11.67;;;9.30;;
3417;SDS011;68007;51.312;12.372;2023-05-07T04:46:56;12.63;;;9.97;;
3417;SDS011;68007;51.312;12.372;2023-05-07T04:49:24;11.23;;;9.13;;
3417;SDS011;68007;51.312;12.372;2023-05-07T04:51:53;12.33;;;9.80;;
3417;SDS011;68007;51.312;12.372;2023-05-07T04:54:21;13.40;;;9.47;;
3417;SDS011;68007;51.312;12.372;2023-05-07T04:56:48;14.13;;;9.80;;
3417;SDS011;68007;51.312;12.372;2023-05-07T04:59:16;13.80;;;10.33;;
3417;SDS011;68007;51.312;12.372;2023-05-07T05:01:43;14.63;;;10.13;;
3417;SDS011;68007;51.312;12.372;2023-05-07T05:04:10;12.77;;;9.53;;
3417;SDS011;68007;51.312;12.372;2023-05-07T05:06:38;13.60;;;10.10;;
3417;SDS011;68007;51.312;12.372;2023-05-07T05:09:07;13.10;;;10.00;;
3417;SDS011;68007;51.312;12.372;2023-05-07T05:11:35;13.10;;;9.90;;
3417;SDS011;68007;51.312;12.372;2023-05-07T05:14:02;12.30;;;9.93;;
3417;SDS011;68007;51.312;12.372;2023-05-07T05:16:30;13.67;;;9.50;;
3417;SDS011;68007;51.312;12.372;2023-05-07T05:18:57;13.80;;;9.60;;
3417;SDS011;68007;51.312;12.372;2023-05-07T05:21:25;13.33;;;9.33;;
3417;SDS011;68007;51.312;12.372;2023-05-07T05:23:52;13.57;;;10.07;;
3417;SDS011;68007;51.312;12.372;2023-05-07T05:26:22;11.40;;;8.83;;
3417;SDS011;68007;51.312;12.372;2023-05-07T05:28:49;10.40;;;8.60;;
3417;SDS011;68007;51.312;12.372;2023-05-07T05:31:17;13.43;;;8.30;;
3417;SDS011;68007;51.312;12.372;2023-05-07T05:33:44;11.73;;;8.47;;
3417;SDS011;68007;51.312;12.372;2023-05-07T05:36:12;10.80;;;8.33;;
3417;SDS011;68007;51.312;12.372;2023-05-07T05:38:39;10.00;;;7.83;;
3417;SDS011;68007;51.312;12.372;2023-05-07T05:41:07;12.00;;;8.07;;
3417;SDS011;68007;51.312;12.372;2023-05-07T05:43:36;11.40;;;7.80;;
3417;SDS011;68007;51.312;12.372;2023-05-07T05:46:03;15.83;;;7.10;;
3417;SDS011;68007;51.312;12.372;2023-05-07T05:48:31;7.87;;;6.60;;
3417;SDS011;68007;51.312;12.372;2023-05-07T05:50:59;11.60;;;6.67;;
3417;SDS011;68007;51.312;12.372;2023-05-07T05:53:27;11.43;;;6.80;;
3417;SDS011;68007;51.312;12.372;2023-05-07T05:55:54;8.73;;;7.10;;
3417;SDS011;68007;51.312;12.372;2023-05-07T05:58:22;8.70;;;6.20;;
3417;SDS011;68007;51.312;12.372;2023-05-07T06:00:51;8.77;;;6.60;;
3417;SDS011;68007;51.312;12.372;2023-05-07T06:03:19;12.40;;;7.30;;
3417;SDS011;68007;51.312;12.372;2023-05-07T06:05:46;8.73;;;6.77;;
3417;SDS011;68007;51.312;12.372;2023-05-07T06:08:14;8.97;;;7.23;;
3417;SDS011;68007;51.312;12.372;2023-05-07T06:10:41;9.93;;;7.00;;
3417;SDS011;68007;51.312;12.372;2023-05-07T06:13:09;12.10;;;6.93;;
3417;SDS011;68007;51.312;12.372;2023-05-07T06:15:36;11.33;;;7.33;;
3417;SDS011;68007;51.312;12.372;2023-05-07T06:18:05;10.53;;;7.27;;
3417;SDS011;68007;51.312;12.372;2023-05-07T06:20:32;10.03;;;7.20;;
3417;SDS011;68007;51.312;12.372;2023-05-07T06:23:00;11.00;;;7.20;;
3417;SDS011;68007;51.312;12.372;2023-05-07T06:25:27;14.77;;;7.03;;
3417;SDS011;68007;51.312;12.372;2023-05-07T06:27:55;10.00;;;7.63;;
3417;SDS011;68007;51.312;12.372;2023-05-07T06:30:22;9.27;;;7.43;;
3417;SDS011;68007;51.312;12.372;2023-05-07T06:32:50;10.70;;;7.30;;
3417;SDS011;68007;51.312;12.372;2023-05-07T06:35:19;9.00;;;7.23;;
3417;SDS011;68007;51.312;12.372;2023-05-07T06:37:47;10.97;;;7.63;;
3417;SDS011;68007;51.312;12.372;2023-05-07T06:40:14;9.73;;;7.53;;
3417;SDS011;68007;51.312;12.372;2023-05-07T06:42:42;11.50;;;8.13;;
3417;SDS011;68007;51.312;12.372;2023-05-07T06:45:10;9.43;;;6.53;;
3417;SDS011;68007;51.312;12.372;2023-05-07T06:47:38;9.27;;;6.30;;
3417;SDS011;68007;51.312;12.372;2023-05-07T06:50:06;14.43;;;7.70;;
3417;SDS011;68007;51.312;12.372;2023-05-07T06:52:36;10.43;;;7.90;;
3417;SDS011;68007;51.312;12.372;2023-05-07T06:55:04;10.50;;;8.20;;
3417;SDS011;68007;51.312;12.372;2023-05-07T06:57:33;13.50;;;7.77;;
3417;SDS011;68007;51.312;12.372;2023-05-07T07:00:00;14.73;;;8.37;;
3417;SDS011;68007;51.312;12.372;2023-05-07T07:02:28;11.10;;;7.73;;
3417;SDS011;68007;51.312;12.372;2023-05-07T07:04:55;11.57;;;8.03;;
3417;SDS011;68007;51.312;12.372;2023-05-07T07:07:23;10.90;;;8.40;;
3417;SDS011;68007;51.312;12.372;2023-05-07T07:09:52;12.33;;;8.60;;
3417;SDS011;68007;51.312;12.372;2023-05-07T07:12:19;9.90;;;8.07;;
3417;SDS011;68007;51.312;12.372;2023-05-07T07:14:48;10.67;;;6.80;;
3417;SDS011;68007;51.312;12.372;2023-05-07T07:17:15;8.90;;;6.87;;
3417;SDS011;68007;51.312;12.372;2023-05-07T07:19:43;8.90;;;6.90;;
3417;SDS011;68007;51.312;12.372;2023-05-07T07:22:11;9.07;;;6.83;;
3417;SDS011;68007;51.312;12.372;2023-05-07T07:24:38;9.50;;;7.20;;
3417;SDS011;68007;51.312;12.372;2023-05-07T07:27:07;10.60;;;6.57;;
3417;SDS011;68007;51.312;12.372;2023-05-07T07:29:35;11.23;;;6.90;;
3417;SDS011;68007;51.312;12.372;2023-05-07T07:32:02;8.53;;;6.17;;
3417;SDS011;68007;51.312;12.372;2023-05-07T07:34:30;10.60;;;6.57;;
3417;SDS011;68007;51.312;12.372;2023-05-07T07:36:57;9.00;;;7.10;;
3417;SDS011;68007;51.312;12.372;2023-05-07T07:39:30;9.07;;;6.30;;
3417;SDS011;68007;51.312;12.372;2023-05-07T07:41:58;9.03;;;6.80;;
3417;SDS011;68007;51.312;12.372;2023-05-07T07:44:28;6.50;;;5.80;;
3417;SDS011;68007;51.312;12.372;2023-05-07T07:46:55;9.60;;;6.50;;
3417;SDS011;68007;51.312;12.372;2023-05-07T07:49:23;7.20;;;5.97;;
3417;SDS011;68007;51.312;12.372;2023-05-07T07:51:50;5.83;;;5.23;;
3417;SDS011;68007;51.312;12.372;2023-05-07T07:54:18;6.77;;;5.93;;
3417;SDS011;68007;51.312;12.372;2023-05-07T07:56:45;10.20;;;6.07;;
3417;SDS011;68007;51.312;12.372;2023-05-07T07:59:13;11.97;;;6.03;;
3417;SDS011;68007;51.312;12.372;2023-05-07T08:01:45;6.03;;;5.00;;
3417;SDS011;68007;51.312;12.372;2023-05-07T08:04:15;7.80;;;6.07;;
3417;SDS011;68007;51.312;12.372;2023-05-07T08:06:43;5.93;;;5.30;;
3417;SDS011;68007;51.312;12.372;2023-05-07T08:09:10;5.93;;;5.03;;
3417;SDS011;68007;51.312;12.372;2023-05-07T08:11:38;6.33;;;5.73;;
3417;SDS011;68007;51.312;12.372;2023-05-07T08:14:06;6.00;;;5.40;;
3417;SDS011;68007;51.312;12.372;2023-05-07T08:16:33;5.83;;;5.13;;
3417;SDS011;68007;51.312;12.372;2023-05-07T08:19:02;6.40;;;5.23;;
3417;SDS011;68007;51.312;12.372;2023-05-07T08:21:30;5.57;;;4.90;;
3417;SDS011;68007;51.312;12.372;2023-05-07T08:23:57;7.53;;;5.60;;
3417;SDS011;68007;51.312;12.372;2023-05-07T08:26:25;8.03;;;5.60;;
3417;SDS011;68007;51.312;12.372;2023-05-07T08:28:52;7.27;;;6.07;;
3417;SDS011;68007;51.312;12.372;2023-05-07T08:31:20;7.00;;;5.23;;
3417;SDS011;68007;51.312;12.372;2023-05-07T08:33:47;6.77;;;4.77;;
3417;SDS011;68007;51.312;12.372;2023-05-07T08:36:16;8.97;;;5.03;;
3417;SDS011;68007;51.312;12.372;2023-05-07T08:38:44;7.03;;;5.13;;
3417;SDS011;68007;51.312;12.372;2023-05-07T08:41:12;5.50;;;4.70;;
3417;SDS011;68007;51.312;12.372;2023-05-07T08:43:40;5.47;;;4.40;;
3417;SDS011;68007;51.312;12.372;2023-05-07T08:46:09;10.00;;;4.30;;
3417;SDS011;68007;51.312;12.372;2023-05-07T08:48:37;4.80;;;4.23;;
3417;SDS011;68007;51.312;12.372;2023-05-07T08:51:04;8.20;;;3.90;;
3417;SDS011;68007;51.312;12.372;2023-05-07T08:53:34;4.80;;;4.10;;
3417;SDS011;68007;51.312;12.372;2023-05-07T08:56:03;8.73;;;4.47;;
3417;SDS011;68007;51.312;12.372;2023-05-07T08:58:31;5.00;;;3.87;;
3417;SDS011;68007;51.312;12.372;2023-05-07T09:00:58;4.37;;;3.97;;
3417;SDS011;68007;51.312;12.372;2023-05-07T09:03:30;7.37;;;5.20;;
3417;SDS011;68007;51.312;12.372;2023-05-07T09:05:58;6.43;;;4.27;;
3417;SDS011;68007;51.312;12.372;2023-05-07T09:08:25;5.30;;;4.40;;
3417;SDS011;68007;51.312;12.372;2023-05-07T09:10:55;5.07;;;4.57;;
3417;SDS011;68007;51.312;12.372;2023-05-07T09:13:22;6.70;;;4.27;;
3417;SDS011;68007;51.312;12.372;2023-05-07T09:15:50;6.50;;;5.00;;
3417;SDS011;68007;51.312;12.372;2023-05-07T09:18:18;5.37;;;4.50;;
3417;SDS011;68007;51.312;12.372;2023-05-07T09:20:45;9.20;;;7.03;;
3417;SDS011;68007;51.312;12.372;2023-05-07T09:23:13;9.20;;;5.27;;
3417;SDS011;68007;51.312;12.372;2023-05-07T09:25:41;4.70;;;4.20;;
3417;SDS011;68007;51.312;12.372;2023-05-07T09:28:10;5.37;;;4.30;;
3417;SDS011;68007;51.312;12.372;2023-05-07T09:30:37;5.20;;;4.10;;
3417;SDS011;68007;51.312;12.372;2023-05-07T09:33:05;6.57;;;4.60;;
3417;SDS011;68007;51.312;12.372;2023-05-07T09:35:32;6.13;;;4.63;;
3417;SDS011;68007;51.312;12.372;2023-05-07T09:38:00;4.40;;;4.00;;
3417;SDS011;68007;51.312;12.372;2023-05-07T09:40:29;5.87;;;4.50;;
3417;SDS011;68007;51.312;12.372;2023-05-07T09:43:07;6.50;;;4.40;;
3417;SDS011;68007;51.312;12.372;2023-05-07T09:45:37;4.10;;;3.73;;
3417;SDS011;68007;51.312;12.372;2023-05-07T09:48:05;6.47;;;5.10;;
3417;SDS011;68007;51.312;12.372;2023-05-07T09:50:35;5.63;;;4.07;;
3417;SDS011;68007;51.312;12.372;2023-05-07T09:53:07;4.90;;;4.30;;
3417;SDS011;68007;51.312;12.372;2023-05-07T09:55:37;13.87;;;4.73;;
3417;SDS011;68007;51.312;12.372;2023-05-07T09:58:05;4.23;;;3.83;;
3417;SDS011;68007;51.312;12.372;2023-05-07T10:00:36;6.37;;;5.30;;
3417;SDS011;68007;51.312;12.372;2023-05-07T10:03:06;5.47;;;4.30;;
3417;SDS011;68007;51.312;12.372;2023-05-07T10:05:36;5.57;;;4.20;;
3417;SDS011;68007;51.312;12.372;2023-05-07T10:08:04;4.67;;;4.27;;
3417;SDS011;68007;51.312;12.372;2023-05-07T10:10:32;5.67;;;4.93;;
3417;SDS011;68007;51.312;12.372;2023-05-07T10:13:00;5.90;;;4.57;;
3417;SDS011;68007;51.312;12.372;2023-05-07T10:15:31;6.10;;;4.27;;
3417;SDS011;68007;51.312;12.372;2023-05-07T10:18:00;6.53;;;4.30;;
3417;SDS011;68007;51.312;12.372;2023-05-07T10:20:29;6.93;;;4.63;;
3417;SDS011;68007;51.312;12.372;2023-05-07T10:22:57;8.00;;;5.43;;
3417;SDS011;68007;51.312;12.372;2023-05-07T10:25:27;5.77;;;4.90;;
3417;SDS011;68007;51.312;12.372;2023-05-07T10:27:57;5.33;;;3.90;;
3417;SDS011;68007;51.312;12.372;2023-05-07T10:30:30;6.23;;;4.07;;
3417;SDS011;68007;51.312;12.372;2023-05-07T10:33:06;5.13;;;3.87;;
3417;SDS011;68007;51.312;12.372;2023-05-07T10:35:37;5.47;;;4.27;;
3417;SDS011;68007;51.312;12.372;2023-05-07T10:38:08;4.57;;;4.10;;
3417;SDS011;68007;51.312;12.372;2023-05-07T10:40:36;6.30;;;3.60;;
3417;SDS011;68007;51.312;12.372;2023-05-07T10:43:04;6.23;;;3.43;;
3417;SDS011;68007;51.312;12.372;2023-05-07T10:45:32;4.03;;;3.63;;
3417;SDS011;68007;51.312;12.372;2023-05-07T10:48:08;7.70;;;3.50;;
3417;SDS011;68007;51.312;12.372;2023-05-07T10:50:37;3.93;;;3.43;;
3417;SDS011;68007;51.312;12.372;2023-05-07T10:53:21;3.90;;;3.50;;
3417;SDS011;68007;51.312;12.372;2023-05-07T10:58:53;3.60;;;3.30;;
3417;SDS011;68007;51.312;12.372;2023-05-07T11:01:49;3.77;;;3.47;;
3417;SDS011;68007;51.312;12.372;2023-05-07T11:04:19;3.33;;;3.03;;
3417;SDS011;68007;51.312;12.372;2023-05-07T11:09:54;5.23;;;3.20;;
3417;SDS011;68007;51.312;12.372;2023-05-07T11:15:13;4.30;;;3.70;;
3417;SDS011;68007;51.312;12.372;2023-05-07T11:17:54;6.97;;;4.20;;
3417;SDS011;68007;51.312;12.372;2023-05-07T11:26:17;3.73;;;3.43;;
3417;SDS011;68007;51.312;12.372;2023-05-07T11:28:45;7.10;;;4.60;;
3417;SDS011;68007;51.312;12.372;2023-05-07T11:31:13;10.30;;;3.90;;
3417;SDS011;68007;51.312;12.372;2023-05-07T11:33:43;4.70;;;3.23;;
3417;SDS011;68007;51.312;12.372;2023-05-07T11:36:12;4.20;;;3.40;;
3417;SDS011;68007;51.312;12.372;2023-05-07T11:38:40;5.50;;;3.87;;
3417;SDS011;68007;51.312;12.372;2023-05-07T11:41:07;4.50;;;3.80;;
3417;SDS011;68007;51.312;12.372;2023-05-07T11:43:35;4.30;;;3.33;;
3417;SDS011;68007;51.312;12.372;2023-05-07T11:46:07;5.50;;;4.17;;
3417;SDS011;68007;51.312;12.372;2023-05-07T11:48:36;4.50;;;3.80;;
3417;SDS011;68007;51.312;12.372;2023-05-07T11:51:04;5.33;;;4.60;;
3417;SDS011;68007;51.312;12.372;2023-05-07T11:53:38;5.77;;;3.67;;
3417;SDS011;68007;51.312;12.372;2023-05-07T11:56:08;5.13;;;4.40;;
3417;SDS011;68007;51.312;12.372;2023-05-07T11:58:37;5.50;;;3.97;;
3417;SDS011;68007;51.312;12.372;2023-05-07T12:01:06;3.87;;;3.50;;
3417;SDS011;68007;51.312;12.372;2023-05-07T12:03:34;5.27;;;4.50;;
3417;SDS011;68007;51.312;12.372;2023-05-07T12:06:03;5.43;;;4.90;;
3417;SDS011;68007;51.312;12.372;2023-05-07T12:08:33;7.90;;;4.73;;
3417;SDS011;68007;51.312;12.372;2023-05-07T12:11:05;5.50;;;4.80;;
3417;SDS011;68007;51.312;12.372;2023-05-07T12:13:34;5.20;;;4.63;;
3417;SDS011;68007;51.312;12.372;2023-05-07T12:16:02;8.07;;;5.57;;
3417;SDS011;68007;51.312;12.372;2023-05-07T12:18:33;8.77;;;6.33;;
3417;SDS011;68007;51.312;12.372;2023-05-07T12:21:02;8.97;;;5.20;;
3417;SDS011;68007;51.312;12.372;2023-05-07T12:23:31;7.77;;;5.10;;
3417;SDS011;68007;51.312;12.372;2023-05-07T12:25:59;6.93;;;4.80;;
3417;SDS011;68007;51.312;12.372;2023-05-07T12:28:28;5.03;;;4.20;;
3417;SDS011;68007;51.312;12.372;2023-05-07T12:30:56;9.97;;;6.47;;
3417;SDS011;68007;51.312;12.372;2023-05-07T12:33:24;6.07;;;4.77;;
3417;SDS011;68007;51.312;12.372;2023-05-07T12:35:54;6.33;;;4.97;;
3417;SDS011;68007;51.312;12.372;2023-05-07T12:38:22;5.50;;;4.37;;
3417;SDS011;68007;51.312;12.372;2023-05-07T12:40:53;4.50;;;4.10;;
3417;SDS011;68007;51.312;12.372;2023-05-07T12:43:21;6.53;;;5.10;;
3417;SDS011;68007;51.312;12.372;2023-05-07T12:45:54;7.20;;;5.30;;
3417;SDS011;68007;51.312;12.372;2023-05-07T12:48:23;4.90;;;4.50;;
3417;SDS011;68007;51.312;12.372;2023-05-07T12:50:52;5.13;;;4.07;;
3417;SDS011;68007;51.312;12.372;2023-05-07T12:53:21;6.27;;;4.50;;
3417;SDS011;68007;51.312;12.372;2023-05-07T12:55:50;10.13;;;5.30;;
3417;SDS011;68007;51.312;12.372;2023-05-07T12:58:19;12.63;;;5.50;;
3417;SDS011;68007;51.312;12.372;2023-05-07T13:00:48;10.33;;;4.80;;
3417;SDS011;68007;51.312;12.372;2023-05-07T13:03:22;6.53;;;4.67;;
3417;SDS011;68007;51.312;12.372;2023-05-07T13:05:50;7.03;;;5.17;;
3417;SDS011;68007;51.312;12.372;2023-05-07T13:08:29;5.50;;;4.70;;
3417;SDS011;68007;51.312;12.372;2023-05-07T13:10:58;6.53;;;4.77;;
3417;SDS011;68007;51.312;12.372;2023-05-07T13:13:29;6.03;;;4.70;;
3417;SDS011;68007;51.312;12.372;2023-05-07T13:15:57;6.10;;;4.90;;
3417;SDS011;68007;51.312;12.372;2023-05-07T13:18:26;4.23;;;3.83;;
3417;SDS011;68007;51.312;12.372;2023-05-07T13:20:54;6.60;;;4.60;;
3417;SDS011;68007;51.312;12.372;2023-05-07T13:23:21;5.33;;;4.83;;
3417;SDS011;68007;51.312;12.372;2023-05-07T13:25:49;6.70;;;4.90;;
3417;SDS011;68007;51.312;12.372;2023-05-07T13:28:18;5.40;;;4.60;;
3417;SDS011;68007;51.312;12.372;2023-05-07T13:30:45;6.20;;;4.37;;
3417;SDS011;68007;51.312;12.372;2023-05-07T13:33:13;4.80;;;4.27;;
3417;SDS011;68007;51.312;12.372;2023-05-07T13:35:42;4.40;;;4.00;;
3417;SDS011;68007;51.312;12.372;2023-05-07T13:38:10;5.00;;;4.10;;
3417;SDS011;68007;51.312;12.372;2023-05-07T13:40:37;4.53;;;4.10;;
3417;SDS011;68007;51.312;12.372;2023-05-07T13:43:05;4.93;;;4.13;;
3417;SDS011;68007;51.312;12.372;2023-05-07T13:45:33;4.90;;;4.40;;
3417;SDS011;68007;51.312;12.372;2023-05-07T13:48:01;4.00;;;3.60;;
3417;SDS011;68007;51.312;12.372;2023-05-07T13:50:28;5.70;;;3.73;;
3417;SDS011;68007;51.312;12.372;2023-05-07T13:52:57;4.10;;;3.00;;
3417;SDS011;68007;51.312;12.372;2023-05-07T13:55:25;4.50;;;3.93;;
3417;SDS011;68007;51.312;12.372;2023-05-07T13:57:55;3.67;;;3.30;;
3417;SDS011;68007;51.312;12.372;2023-05-07T14:00:23;4.40;;;3.43;;
3417;SDS011;68007;51.312;12.372;2023-05-07T14:02:51;4.37;;;3.83;;
3417;SDS011;68007;51.312;12.372;2023-05-07T14:05:19;5.63;;;4.43;;
3417;SDS011;68007;51.312;12.372;2023-05-07T14:07:48;4.10;;;3.53;;
3417;SDS011;68007;51.312;12.372;2023-05-07T14:10:18;3.50;;;3.20;;
3417;SDS011;68007;51.312;12.372;2023-05-07T14:12:46;7.30;;;4.07;;
3417;SDS011;68007;51.312;12.372;2023-05-07T14:15:14;3.80;;;3.13;;
3417;SDS011;68007;51.312;12.372;2023-05-07T14:17:41;4.30;;;3.40;;
3417;SDS011;68007;51.312;12.372;2023-05-07T14:20:11;4.70;;;3.70;;
3417;SDS011;68007;51.312;12.372;2023-05-07T14:22:38;3.33;;;3.03;;
3417;SDS011;68007;51.312;12.372;2023-05-07T14:25:07;5.43;;;3.20;;
3417;SDS011;68007;51.312;12.372;2023-05-07T14:27:37;4.07;;;3.30;;
3417;SDS011;68007;51.312;12.372;2023-05-07T14:30:05;7.03;;;3.50;;
3417;SDS011;68007;51.312;12.372;2023-05-07T14:32:34;4.90;;;3.50;;
3417;SDS011;68007;51.312;12.372;2023-05-07T14:35:01;2.97;;;2.57;;
3417;SDS011;68007;51.312;12.372;2023-05-07T14:37:29;3.70;;;2.80;;
3417;SDS011;68007;51.312;12.372;2023-05-07T14:39:56;3.07;;;2.60;;
3417;SDS011;68007;51.312;12.372;2023-05-07T14:42:24;3.43;;;3.00;;
3417;SDS011;68007;51.312;12.372;2023-05-07T14:44:53;3.67;;;2.77;;
3417;SDS011;68007;51.312;12.372;2023-05-07T14:47:21;2.83;;;2.40;;
3417;SDS011;68007;51.312;12.372;2023-05-07T14:49:48;3.13;;;2.73;;
3417;SDS011;68007;51.312;12.372;2023-05-07T14:52:15;3.20;;;2.70;;
3417;SDS011;68007;51.312;12.372;2023-05-07T14:54:43;3.57;;;2.43;;
3417;SDS011;68007;51.312;12.372;2023-05-07T14:57:11;3.07;;;2.77;;
3417;SDS011;68007;51.312;12.372;2023-05-07T14:59:41;4.43;;;3.17;;
3417;SDS011;68007;51.312;12.372;2023-05-07T15:02:11;3.13;;;2.87;;